sensor_id;sensor_type;location;lat;lon;timestamp;temperature;humidity
18160;DHT22;9205;52.032;4.314;2022-12-18T00:00:07;-1.60;99.90
18160;DHT22;9205;52.032;4.314;2022-12-18T00:02:43;-1.40;99.90
18160;DHT22;9205;52.032;4.314;2022-12-18T00:05:10;-1.50;99.90
18160;DHT22;9205;52.032;4.314;2022-12-18T00:07:38;-1.60;99.90
18160;DHT22;9205;52.032;4.314;2022-12-18T00:10:06;-1.50;99.90
18160;DHT22;9205;52.032;4.314;2022-12-18T00:12:34;-1.70;99.90
18160;DHT22;9205;52.032;4.314;2022-12-18T00:15:04;-1.40;99.90
18160;DHT22;9205;52.032;4.314;2022-12-18T00:17:33;-1.50;99.90
18160;DHT22;9205;52.032;4.314;2022-12-18T00:20:00;-1.50;99.90
18160;DHT22;9205;52.032;4.314;2022-12-18T00:22:28;-1.60;99.90
18160;DHT22;9205;52.032;4.314;2022-12-18T00:24:57;-1.40;99.90
18160;DHT22;9205;52.032;4.314;2022-12-18T00:27:24;-1.60;99.90
18160;DHT22;9205;52.032;4.314;2022-12-18T00:29:52;-1.40;99.90
18160;DHT22;9205;52.032;4.314;2022-12-18T00:32:20;-1.60;99.90
18160;DHT22;9205;52.032;4.314;2022-12-18T00:34:48;-1.50;99.90
18160;DHT22;9205;52.032;4.314;2022-12-18T00:37:15;-1.60;99.90
18160;DHT22;9205;52.032;4.314;2022-12-18T00:39:42;-1.70;99.90
18160;DHT22;9205;52.032;4.314;2022-12-18T00:42:10;-1.50;99.90
18160;DHT22;9205;52.032;4.314;2022-12-18T00:44:55;-1.40;99.90
18160;DHT22;9205;52.032;4.314;2022-12-18T00:47:24;-1.60;99.90
18160;DHT22;9205;52.032;4.314;2022-12-18T00:49:51;-1.70;99.90
18160;DHT22;9205;52.032;4.314;2022-12-18T00:52:18;-1.60;99.90
18160;DHT22;9205;52.032;4.314;2022-12-18T00:54:46;-1.60;99.90
18160;DHT22;9205;52.032;4.314;2022-12-18T00:57:13;-1.40;99.90
18160;DHT22;9205;52.032;4.314;2022-12-18T00:59:42;-1.30;99.90
18160;DHT22;9205;52.032;4.314;2022-12-18T01:02:10;-1.40;99.90
18160;DHT22;9205;52.032;4.314;2022-12-18T01:04:39;-1.40;99.90
18160;DHT22;9205;52.032;4.314;2022-12-18T01:07:07;-1.60;99.90
18160;DHT22;9205;52.032;4.314;2022-12-18T01:09:34;-1.50;99.90
18160;DHT22;9205;52.032;4.314;2022-12-18T01:12:02;-1.30;99.90
18160;DHT22;9205;52.032;4.314;2022-12-18T01:14:29;-1.40;99.90
18160;DHT22;9205;52.032;4.314;2022-12-18T01:16:58;-1.60;99.90
18160;DHT22;9205;52.032;4.314;2022-12-18T01:19:28;-1.50;99.90
18160;DHT22;9205;52.032;4.314;2022-12-18T01:21:57;-1.50;99.90
18160;DHT22;9205;52.032;4.314;2022-12-18T01:24:25;-1.70;99.90
18160;DHT22;9205;52.032;4.314;2022-12-18T01:26:52;-1.80;99.90
18160;DHT22;9205;52.032;4.314;2022-12-18T01:29:19;-1.90;99.90
18160;DHT22;9205;52.032;4.314;2022-12-18T01:31:47;-1.70;99.90
18160;DHT22;9205;52.032;4.314;2022-12-18T01:34:14;-1.70;99.90
18160;DHT22;9205;52.032;4.314;2022-12-18T01:36:42;-2.00;99.90
18160;DHT22;9205;52.032;4.314;2022-12-18T01:39:13;-1.80;99.90
18160;DHT22;9205;52.032;4.314;2022-12-18T01:41:41;-1.80;99.90
18160;DHT22;9205;52.032;4.314;2022-12-18T01:44:59;-2.00;99.90
18160;DHT22;9205;52.032;4.314;2022-12-18T01:47:38;-1.80;99.90
18160;DHT22;9205;52.032;4.314;2022-12-18T01:50:10;-1.70;99.90
18160;DHT22;9205;52.032;4.314;2022-12-18T01:52:41;-1.70;99.90
18160;DHT22;9205;52.032;4.314;2022-12-18T01:55:12;-1.90;99.90
18160;DHT22;9205;52.032;4.314;2022-12-18T01:57:41;-2.00;99.90
18160;DHT22;9205;52.032;4.314;2022-12-18T02:00:12;-1.60;99.90
18160;DHT22;9205;52.032;4.314;2022-12-18T02:02:43;-1.60;99.90
18160;DHT22;9205;52.032;4.314;2022-12-18T02:05:15;-1.70;99.90
18160;DHT22;9205;52.032;4.314;2022-12-18T02:07:54;-1.80;99.90
18160;DHT22;9205;52.032;4.314;2022-12-18T02:10:41;-1.70;99.90
18160;DHT22;9205;52.032;4.314;2022-12-18T02:13:19;-1.80;99.90
18160;DHT22;9205;52.032;4.314;2022-12-18T02:15:54;-1.90;99.90
18160;DHT22;9205;52.032;4.314;2022-12-18T02:18:30;-1.70;99.90
18160;DHT22;9205;52.032;4.314;2022-12-18T02:21:08;-1.90;99.90
18160;DHT22;9205;52.032;4.314;2022-12-18T02:23:52;-2.20;99.90
18160;DHT22;9205;52.032;4.314;2022-12-18T02:26:35;-2.00;99.90
18160;DHT22;9205;52.032;4.314;2022-12-18T02:29:08;-2.20;99.90
18160;DHT22;9205;52.032;4.314;2022-12-18T02:31:43;-2.20;99.90
18160;DHT22;9205;52.032;4.314;2022-12-18T02:34:16;-2.10;99.90
18160;DHT22;9205;52.032;4.314;2022-12-18T02:36:47;-2.30;99.90
18160;DHT22;9205;52.032;4.314;2022-12-18T02:39:17;-2.30;99.90
18160;DHT22;9205;52.032;4.314;2022-12-18T02:42:03;-2.10;99.90
18160;DHT22;9205;52.032;4.314;2022-12-18T02:44:34;-2.10;99.90
18160;DHT22;9205;52.032;4.314;2022-12-18T02:47:04;-2.20;99.90
18160;DHT22;9205;52.032;4.314;2022-12-18T02:49:37;-2.20;99.90
18160;DHT22;9205;52.032;4.314;2022-12-18T02:52:32;-2.20;99.90
18160;DHT22;9205;52.032;4.314;2022-12-18T02:55:22;-2.20;99.90
18160;DHT22;9205;52.032;4.314;2022-12-18T02:58:05;-2.20;99.90
18160;DHT22;9205;52.032;4.314;2022-12-18T03:00:43;-2.00;99.90
18160;DHT22;9205;52.032;4.314;2022-12-18T03:03:24;-2.30;99.90
18160;DHT22;9205;52.032;4.314;2022-12-18T03:06:01;-2.20;99.90
18160;DHT22;9205;52.032;4.314;2022-12-18T03:08:39;-2.30;99.90
18160;DHT22;9205;52.032;4.314;2022-12-18T03:11:11;-2.20;99.90
18160;DHT22;9205;52.032;4.314;2022-12-18T03:13:45;-2.40;99.90
18160;DHT22;9205;52.032;4.314;2022-12-18T03:16:22;-2.40;99.90
18160;DHT22;9205;52.032;4.314;2022-12-18T03:18:56;-2.30;99.90
18160;DHT22;9205;52.032;4.314;2022-12-18T03:21:32;-2.40;99.90
18160;DHT22;9205;52.032;4.314;2022-12-18T03:24:06;-2.60;99.90
18160;DHT22;9205;52.032;4.314;2022-12-18T03:26:42;-2.50;99.90
18160;DHT22;9205;52.032;4.314;2022-12-18T03:29:18;-2.50;99.90
18160;DHT22;9205;52.032;4.314;2022-12-18T03:31:53;-2.30;99.90
18160;DHT22;9205;52.032;4.314;2022-12-18T03:34:29;-2.60;99.90
18160;DHT22;9205;52.032;4.314;2022-12-18T03:37:03;-2.50;99.90
18160;DHT22;9205;52.032;4.314;2022-12-18T03:39:32;-2.60;99.90
18160;DHT22;9205;52.032;4.314;2022-12-18T03:42:06;-2.60;99.90
18160;DHT22;9205;52.032;4.314;2022-12-18T03:44:52;-2.70;99.90
18160;DHT22;9205;52.032;4.314;2022-12-18T03:47:27;-2.40;99.90
18160;DHT22;9205;52.032;4.314;2022-12-18T03:50:10;-2.70;99.90
18160;DHT22;9205;52.032;4.314;2022-12-18T03:52:48;-2.60;99.90
18160;DHT22;9205;52.032;4.314;2022-12-18T03:55:21;-2.50;99.90
18160;DHT22;9205;52.032;4.314;2022-12-18T03:57:57;-2.50;99.90
18160;DHT22;9205;52.032;4.314;2022-12-18T04:00:32;-2.50;99.90
18160;DHT22;9205;52.032;4.314;2022-12-18T04:03:07;-2.40;99.90
18160;DHT22;9205;52.032;4.314;2022-12-18T04:05:44;-2.50;99.90
18160;DHT22;9205;52.032;4.314;2022-12-18T04:08:17;-2.40;99.90
18160;DHT22;9205;52.032;4.314;2022-12-18T04:10:55;-2.40;99.90
18160;DHT22;9205;52.032;4.314;2022-12-18T04:13:23;-2.30;99.90
18160;DHT22;9205;52.032;4.314;2022-12-18T04:15:53;-2.20;99.90
18160;DHT22;9205;52.032;4.314;2022-12-18T04:18:22;-2.30;99.90
18160;DHT22;9205;52.032;4.314;2022-12-18T04:20:50;-2.50;99.90
18160;DHT22;9205;52.032;4.314;2022-12-18T04:23:17;-2.40;99.90
18160;DHT22;9205;52.032;4.314;2022-12-18T04:25:46;-2.40;99.90
18160;DHT22;9205;52.032;4.314;2022-12-18T04:28:21;-2.60;99.90
18160;DHT22;9205;52.032;4.314;2022-12-18T04:30:49;-2.50;99.90
18160;DHT22;9205;52.032;4.314;2022-12-18T04:33:18;-2.60;99.90
18160;DHT22;9205;52.032;4.314;2022-12-18T04:35:46;-2.70;99.90
18160;DHT22;9205;52.032;4.314;2022-12-18T04:38:13;-2.50;99.90
18160;DHT22;9205;52.032;4.314;2022-12-18T04:40:42;-2.70;99.90
18160;DHT22;9205;52.032;4.314;2022-12-18T04:43:19;-2.70;99.90
18160;DHT22;9205;52.032;4.314;2022-12-18T04:45:46;-2.50;99.90
18160;DHT22;9205;52.032;4.314;2022-12-18T04:48:14;-2.70;99.90
18160;DHT22;9205;52.032;4.314;2022-12-18T04:50:43;-2.60;99.90
18160;DHT22;9205;52.032;4.314;2022-12-18T04:53:11;-2.90;99.90
18160;DHT22;9205;52.032;4.314;2022-12-18T04:55:39;-2.80;99.90
18160;DHT22;9205;52.032;4.314;2022-12-18T04:58:07;-2.90;99.90
18160;DHT22;9205;52.032;4.314;2022-12-18T05:00:34;-3.00;99.90
18160;DHT22;9205;52.032;4.314;2022-12-18T05:03:02;-3.00;99.90
18160;DHT22;9205;52.032;4.314;2022-12-18T05:05:29;-3.10;99.90
18160;DHT22;9205;52.032;4.314;2022-12-18T05:07:59;-2.90;99.90
18160;DHT22;9205;52.032;4.314;2022-12-18T05:10:29;-2.90;99.90
18160;DHT22;9205;52.032;4.314;2022-12-18T05:12:58;-2.80;99.90
18160;DHT22;9205;52.032;4.314;2022-12-18T05:15:27;-3.00;99.90
18160;DHT22;9205;52.032;4.314;2022-12-18T05:17:58;-3.00;99.90
18160;DHT22;9205;52.032;4.314;2022-12-18T05:20:27;-3.20;99.90
18160;DHT22;9205;52.032;4.314;2022-12-18T05:22:55;-3.10;99.90
18160;DHT22;9205;52.032;4.314;2022-12-18T05:25:24;-3.10;99.90
18160;DHT22;9205;52.032;4.314;2022-12-18T05:27:52;-3.20;99.90
18160;DHT22;9205;52.032;4.314;2022-12-18T05:30:19;-3.20;99.90
18160;DHT22;9205;52.032;4.314;2022-12-18T05:32:48;-3.50;99.90
18160;DHT22;9205;52.032;4.314;2022-12-18T05:35:15;-3.30;99.90
18160;DHT22;9205;52.032;4.314;2022-12-18T05:37:43;-3.40;99.90
18160;DHT22;9205;52.032;4.314;2022-12-18T05:40:12;-3.50;99.90
18160;DHT22;9205;52.032;4.314;2022-12-18T05:42:40;-3.30;99.90
18160;DHT22;9205;52.032;4.314;2022-12-18T05:45:08;-3.40;99.90
18160;DHT22;9205;52.032;4.314;2022-12-18T05:47:36;-3.40;99.90
18160;DHT22;9205;52.032;4.314;2022-12-18T05:50:04;-3.30;99.90
18160;DHT22;9205;52.032;4.314;2022-12-18T05:52:32;-3.50;99.90
18160;DHT22;9205;52.032;4.314;2022-12-18T05:54:59;-3.40;99.90
18160;DHT22;9205;52.032;4.314;2022-12-18T05:57:29;-3.30;99.90
18160;DHT22;9205;52.032;4.314;2022-12-18T05:59:56;-3.40;99.90
18160;DHT22;9205;52.032;4.314;2022-12-18T06:02:24;-3.50;99.90
18160;DHT22;9205;52.032;4.314;2022-12-18T06:04:52;-3.40;99.90
18160;DHT22;9205;52.032;4.314;2022-12-18T06:07:19;-3.40;99.90
18160;DHT22;9205;52.032;4.314;2022-12-18T06:09:47;-3.50;99.90
18160;DHT22;9205;52.032;4.314;2022-12-18T06:12:17;-3.40;99.90
18160;DHT22;9205;52.032;4.314;2022-12-18T06:14:46;-3.40;99.90
18160;DHT22;9205;52.032;4.314;2022-12-18T06:17:13;-3.50;99.90
18160;DHT22;9205;52.032;4.314;2022-12-18T06:19:41;-3.40;99.90
18160;DHT22;9205;52.032;4.314;2022-12-18T06:22:08;-3.30;99.90
18160;DHT22;9205;52.032;4.314;2022-12-18T06:24:36;-3.40;99.90
18160;DHT22;9205;52.032;4.314;2022-12-18T06:27:03;-3.40;99.90
18160;DHT22;9205;52.032;4.314;2022-12-18T06:29:32;-3.40;99.90
18160;DHT22;9205;52.032;4.314;2022-12-18T06:32:04;-3.40;99.90
18160;DHT22;9205;52.032;4.314;2022-12-18T06:34:34;-3.40;99.90
18160;DHT22;9205;52.032;4.314;2022-12-18T06:37:04;-3.50;99.90
18160;DHT22;9205;52.032;4.314;2022-12-18T06:39:31;-3.50;99.90
18160;DHT22;9205;52.032;4.314;2022-12-18T06:41:59;-3.40;99.90
18160;DHT22;9205;52.032;4.314;2022-12-18T06:44:26;-3.60;99.90
18160;DHT22;9205;52.032;4.314;2022-12-18T06:46:54;-3.50;99.90
18160;DHT22;9205;52.032;4.314;2022-12-18T06:49:25;-3.50;99.90
18160;DHT22;9205;52.032;4.314;2022-12-18T06:51:52;-3.50;99.90
18160;DHT22;9205;52.032;4.314;2022-12-18T06:54:20;-3.70;99.90
18160;DHT22;9205;52.032;4.314;2022-12-18T06:56:47;-3.60;99.90
18160;DHT22;9205;52.032;4.314;2022-12-18T06:59:15;-3.60;99.90
18160;DHT22;9205;52.032;4.314;2022-12-18T07:01:43;-3.50;99.90
18160;DHT22;9205;52.032;4.314;2022-12-18T07:04:11;-3.60;99.90
18160;DHT22;9205;52.032;4.314;2022-12-18T07:06:41;-3.50;99.90
18160;DHT22;9205;52.032;4.314;2022-12-18T07:09:08;-3.50;99.90
18160;DHT22;9205;52.032;4.314;2022-12-18T07:11:38;-3.50;99.90
18160;DHT22;9205;52.032;4.314;2022-12-18T07:14:06;-3.50;99.90
18160;DHT22;9205;52.032;4.314;2022-12-18T07:16:33;-3.60;99.90
18160;DHT22;9205;52.032;4.314;2022-12-18T07:19:01;-3.60;99.90
18160;DHT22;9205;52.032;4.314;2022-12-18T07:21:29;-3.70;99.90
18160;DHT22;9205;52.032;4.314;2022-12-18T07:23:58;-3.80;99.90
18160;DHT22;9205;52.032;4.314;2022-12-18T07:26:27;-3.60;99.90
18160;DHT22;9205;52.032;4.314;2022-12-18T07:28:56;-3.70;99.90
18160;DHT22;9205;52.032;4.314;2022-12-18T07:31:25;-3.70;99.90
18160;DHT22;9205;52.032;4.314;2022-12-18T07:33:53;-3.60;99.90
18160;DHT22;9205;52.032;4.314;2022-12-18T07:36:20;-3.70;99.90
18160;DHT22;9205;52.032;4.314;2022-12-18T07:38:48;-3.60;99.90
18160;DHT22;9205;52.032;4.314;2022-12-18T07:41:20;-3.70;99.90
18160;DHT22;9205;52.032;4.314;2022-12-18T07:43:49;-3.60;99.90
18160;DHT22;9205;52.032;4.314;2022-12-18T07:46:17;-3.60;99.90
18160;DHT22;9205;52.032;4.314;2022-12-18T07:48:45;-3.60;99.90
18160;DHT22;9205;52.032;4.314;2022-12-18T07:51:13;-3.50;99.90
18160;DHT22;9205;52.032;4.314;2022-12-18T07:53:42;-3.50;99.90
18160;DHT22;9205;52.032;4.314;2022-12-18T07:56:12;-3.50;99.90
18160;DHT22;9205;52.032;4.314;2022-12-18T07:58:41;-3.50;99.90
18160;DHT22;9205;52.032;4.314;2022-12-18T08:01:13;-3.20;99.90
18160;DHT22;9205;52.032;4.314;2022-12-18T08:03:42;-3.20;99.90
18160;DHT22;9205;52.032;4.314;2022-12-18T08:06:10;-3.40;99.90
18160;DHT22;9205;52.032;4.314;2022-12-18T08:08:38;-3.30;99.90
18160;DHT22;9205;52.032;4.314;2022-12-18T08:11:07;-3.40;94.10
18160;DHT22;9205;52.032;4.314;2022-12-18T08:13:34;-3.40;85.30
18160;DHT22;9205;52.032;4.314;2022-12-18T08:16:05;-3.40;60.60
18160;DHT22;9205;52.032;4.314;2022-12-18T08:18:35;-3.40;50.20
18160;DHT22;9205;52.032;4.314;2022-12-18T08:21:09;-3.50;33.50
18160;DHT22;9205;52.032;4.314;2022-12-18T08:23:37;-3.40;25.00
18160;DHT22;9205;52.032;4.314;2022-12-18T08:26:05;-3.40;17.50
18160;DHT22;9205;52.032;4.314;2022-12-18T08:28:33;-3.40;11.00
18160;DHT22;9205;52.032;4.314;2022-12-18T08:31:00;-3.30;5.90
18160;DHT22;9205;52.032;4.314;2022-12-18T08:33:30;-3.40;1.00
18160;DHT22;9205;52.032;4.314;2022-12-18T08:35:58;-3.30;1.00
18160;DHT22;9205;52.032;4.314;2022-12-18T08:38:26;-3.40;1.00
18160;DHT22;9205;52.032;4.314;2022-12-18T08:40:58;-3.30;1.00
18160;DHT22;9205;52.032;4.314;2022-12-18T08:43:27;-3.30;1.00
18160;DHT22;9205;52.032;4.314;2022-12-18T08:46:17;-3.30;1.00
18160;DHT22;9205;52.032;4.314;2022-12-18T08:48:45;-3.20;1.00
18160;DHT22;9205;52.032;4.314;2022-12-18T08:51:13;-3.10;1.00
18160;DHT22;9205;52.032;4.314;2022-12-18T08:53:45;-3.10;1.00
18160;DHT22;9205;52.032;4.314;2022-12-18T08:56:15;-3.00;1.00
18160;DHT22;9205;52.032;4.314;2022-12-18T08:58:43;-3.00;1.00
18160;DHT22;9205;52.032;4.314;2022-12-18T09:01:20;-2.90;1.00
18160;DHT22;9205;52.032;4.314;2022-12-18T09:03:48;-2.90;1.00
18160;DHT22;9205;52.032;4.314;2022-12-18T09:06:17;-2.90;1.00
18160;DHT22;9205;52.032;4.314;2022-12-18T09:08:49;-3.10;1.00
18160;DHT22;9205;52.032;4.314;2022-12-18T09:11:22;-3.00;1.00
18160;DHT22;9205;52.032;4.314;2022-12-18T09:13:54;-3.10;1.00
18160;DHT22;9205;52.032;4.314;2022-12-18T09:16:25;-2.90;1.00
18160;DHT22;9205;52.032;4.314;2022-12-18T09:18:54;-3.00;1.00
18160;DHT22;9205;52.032;4.314;2022-12-18T09:21:26;-3.00;1.00
18160;DHT22;9205;52.032;4.314;2022-12-18T09:23:55;-2.90;1.00
18160;DHT22;9205;52.032;4.314;2022-12-18T09:26:25;-3.00;1.00
18160;DHT22;9205;52.032;4.314;2022-12-18T09:28:54;-2.90;1.00
18160;DHT22;9205;52.032;4.314;2022-12-18T09:31:24;-2.90;1.00
18160;DHT22;9205;52.032;4.314;2022-12-18T09:33:51;-3.00;1.00
18160;DHT22;9205;52.032;4.314;2022-12-18T09:36:21;-2.70;1.00
18160;DHT22;9205;52.032;4.314;2022-12-18T09:38:49;-2.80;1.00
18160;DHT22;9205;52.032;4.314;2022-12-18T09:41:31;-2.80;1.00
18160;DHT22;9205;52.032;4.314;2022-12-18T09:44:16;-2.80;1.00
18160;DHT22;9205;52.032;4.314;2022-12-18T09:46:57;-2.70;1.00
18160;DHT22;9205;52.032;4.314;2022-12-18T09:49:31;-2.60;1.00
18160;DHT22;9205;52.032;4.314;2022-12-18T09:52:09;-2.50;1.00
18160;DHT22;9205;52.032;4.314;2022-12-18T09:54:46;-2.50;1.00
18160;DHT22;9205;52.032;4.314;2022-12-18T09:57:23;-2.50;1.00
18160;DHT22;9205;52.032;4.314;2022-12-18T09:59:56;-2.40;1.00
18160;DHT22;9205;52.032;4.314;2022-12-18T10:02:39;-2.50;1.00
18160;DHT22;9205;52.032;4.314;2022-12-18T10:05:09;-2.40;1.00
18160;DHT22;9205;52.032;4.314;2022-12-18T10:07:49;-2.40;1.00
18160;DHT22;9205;52.032;4.314;2022-12-18T10:10:35;-2.40;1.00
18160;DHT22;9205;52.032;4.314;2022-12-18T10:13:15;-2.30;1.00
18160;DHT22;9205;52.032;4.314;2022-12-18T10:16:00;-2.30;1.00
18160;DHT22;9205;52.032;4.314;2022-12-18T10:19:04;-2.20;1.00
18160;DHT22;9205;52.032;4.314;2022-12-18T10:21:48;-2.20;1.00
18160;DHT22;9205;52.032;4.314;2022-12-18T10:24:24;-2.30;1.00
18160;DHT22;9205;52.032;4.314;2022-12-18T10:27:12;-2.20;1.00
18160;DHT22;9205;52.032;4.314;2022-12-18T10:29:45;-2.20;1.00
18160;DHT22;9205;52.032;4.314;2022-12-18T10:32:19;-2.20;1.00
18160;DHT22;9205;52.032;4.314;2022-12-18T10:34:58;-2.20;1.00
18160;DHT22;9205;52.032;4.314;2022-12-18T10:37:28;-2.10;1.00
18160;DHT22;9205;52.032;4.314;2022-12-18T10:40:36;-2.20;1.00
18160;DHT22;9205;52.032;4.314;2022-12-18T10:43:20;-2.20;1.00
18160;DHT22;9205;52.032;4.314;2022-12-18T10:46:04;-2.00;1.00
18160;DHT22;9205;52.032;4.314;2022-12-18T10:48:47;-2.10;1.00
18160;DHT22;9205;52.032;4.314;2022-12-18T10:51:26;-2.00;1.00
18160;DHT22;9205;52.032;4.314;2022-12-18T10:53:59;-2.00;1.00
18160;DHT22;9205;52.032;4.314;2022-12-18T10:56:33;-2.00;1.00
18160;DHT22;9205;52.032;4.314;2022-12-18T10:59:07;-1.90;1.00
18160;DHT22;9205;52.032;4.314;2022-12-18T11:04:50;-1.70;1.00
18160;DHT22;9205;52.032;4.314;2022-12-18T11:07:22;-1.80;1.00
18160;DHT22;9205;52.032;4.314;2022-12-18T11:10:00;-1.70;1.00
18160;DHT22;9205;52.032;4.314;2022-12-18T11:12:29;-1.70;1.00
18160;DHT22;9205;52.032;4.314;2022-12-18T11:15:01;-1.60;1.00
18160;DHT22;9205;52.032;4.314;2022-12-18T11:17:47;-1.70;1.00
18160;DHT22;9205;52.032;4.314;2022-12-18T11:20:30;-1.70;1.00
18160;DHT22;9205;52.032;4.314;2022-12-18T11:23:05;-1.70;1.00
18160;DHT22;9205;52.032;4.314;2022-12-18T11:25:40;-1.60;1.00
18160;DHT22;9205;52.032;4.314;2022-12-18T11:28:37;-1.60;1.00
18160;DHT22;9205;52.032;4.314;2022-12-18T11:31:51;-1.50;1.00
18160;DHT22;9205;52.032;4.314;2022-12-18T11:34:24;-1.50;1.00
18160;DHT22;9205;52.032;4.314;2022-12-18T11:37:13;-1.40;1.00
18160;DHT22;9205;52.032;4.314;2022-12-18T11:39:49;-1.40;1.00
18160;DHT22;9205;52.032;4.314;2022-12-18T11:42:25;-1.40;1.00
18160;DHT22;9205;52.032;4.314;2022-12-18T11:45:24;-1.40;1.00
18160;DHT22;9205;52.032;4.314;2022-12-18T11:48:14;-1.40;1.00
18160;DHT22;9205;52.032;4.314;2022-12-18T11:50:50;-1.40;1.00
18160;DHT22;9205;52.032;4.314;2022-12-18T11:53:45;-1.50;1.00
18160;DHT22;9205;52.032;4.314;2022-12-18T11:57:26;-1.30;1.00
18160;DHT22;9205;52.032;4.314;2022-12-18T12:00:13;-1.30;1.00
18160;DHT22;9205;52.032;4.314;2022-12-18T12:03:25;-1.30;1.00
18160;DHT22;9205;52.032;4.314;2022-12-18T12:06:11;-1.20;1.00
18160;DHT22;9205;52.032;4.314;2022-12-18T12:09:07;-1.10;1.00
18160;DHT22;9205;52.032;4.314;2022-12-18T12:11:58;-1.30;1.00
18160;DHT22;9205;52.032;4.314;2022-12-18T12:14:44;-1.30;1.00
18160;DHT22;9205;52.032;4.314;2022-12-18T12:17:30;-1.10;1.00
18160;DHT22;9205;52.032;4.314;2022-12-18T12:20:11;-1.10;1.00
18160;DHT22;9205;52.032;4.314;2022-12-18T12:22:53;-1.10;1.00
18160;DHT22;9205;52.032;4.314;2022-12-18T12:25:34;-1.20;1.00
18160;DHT22;9205;52.032;4.314;2022-12-18T12:28:17;-1.20;1.00
18160;DHT22;9205;52.032;4.314;2022-12-18T12:31:01;-1.20;1.00
18160;DHT22;9205;52.032;4.314;2022-12-18T12:33:49;-1.10;1.00
18160;DHT22;9205;52.032;4.314;2022-12-18T12:36:32;-1.10;1.00
18160;DHT22;9205;52.032;4.314;2022-12-18T12:39:08;-1.00;1.00
18160;DHT22;9205;52.032;4.314;2022-12-18T12:41:42;-0.90;1.00
18160;DHT22;9205;52.032;4.314;2022-12-18T12:44:29;-1.00;1.00
18160;DHT22;9205;52.032;4.314;2022-12-18T12:47:13;-0.80;1.00
18160;DHT22;9205;52.032;4.314;2022-12-18T12:49:45;-0.90;1.00
18160;DHT22;9205;52.032;4.314;2022-12-18T12:52:28;-0.70;1.00
18160;DHT22;9205;52.032;4.314;2022-12-18T12:55:04;-0.80;1.00
18160;DHT22;9205;52.032;4.314;2022-12-18T12:57:41;-0.90;1.00
18160;DHT22;9205;52.032;4.314;2022-12-18T13:00:30;-0.90;1.00
18160;DHT22;9205;52.032;4.314;2022-12-18T13:03:11;-0.80;1.00
18160;DHT22;9205;52.032;4.314;2022-12-18T13:06:09;-0.90;1.00
18160;DHT22;9205;52.032;4.314;2022-12-18T13:08:55;-0.80;1.00
18160;DHT22;9205;52.032;4.314;2022-12-18T13:11:39;-0.80;1.00
18160;DHT22;9205;52.032;4.314;2022-12-18T13:14:32;-0.70;1.00
18160;DHT22;9205;52.032;4.314;2022-12-18T13:17:29;-0.60;1.00
18160;DHT22;9205;52.032;4.314;2022-12-18T13:20:14;-0.60;1.00
18160;DHT22;9205;52.032;4.314;2022-12-18T13:22:46;-0.60;1.00
18160;DHT22;9205;52.032;4.314;2022-12-18T13:25:35;-0.60;1.00
18160;DHT22;9205;52.032;4.314;2022-12-18T13:28:10;-0.60;1.00
18160;DHT22;9205;52.032;4.314;2022-12-18T13:30:56;-0.50;1.00
18160;DHT22;9205;52.032;4.314;2022-12-18T13:33:49;-0.50;1.00
18160;DHT22;9205;52.032;4.314;2022-12-18T13:36:33;-0.60;1.00
18160;DHT22;9205;52.032;4.314;2022-12-18T13:39:34;-0.50;1.00
18160;DHT22;9205;52.032;4.314;2022-12-18T13:45:39;-0.40;1.00
18160;DHT22;9205;52.032;4.314;2022-12-18T13:48:22;-0.40;1.00
18160;DHT22;9205;52.032;4.314;2022-12-18T13:51:26;-0.30;1.00
18160;DHT22;9205;52.032;4.314;2022-12-18T13:57:34;-0.20;1.00
18160;DHT22;9205;52.032;4.314;2022-12-18T14:00:45;-0.20;1.00
18160;DHT22;9205;52.032;4.314;2022-12-18T14:03:29;-0.20;1.00
18160;DHT22;9205;52.032;4.314;2022-12-18T14:06:06;-0.20;1.00
18160;DHT22;9205;52.032;4.314;2022-12-18T14:08:39;-0.10;1.00
18160;DHT22;9205;52.032;4.314;2022-12-18T14:11:19;-0.10;1.00
18160;DHT22;9205;52.032;4.314;2022-12-18T14:13:52;-0.10;1.00
18160;DHT22;9205;52.032;4.314;2022-12-18T14:16:37;-0.10;1.00
18160;DHT22;9205;52.032;4.314;2022-12-18T14:19:16;0.00;1.00
18160;DHT22;9205;52.032;4.314;2022-12-18T14:22:18;0.00;1.00
18160;DHT22;9205;52.032;4.314;2022-12-18T14:25:10;0.00;1.00
18160;DHT22;9205;52.032;4.314;2022-12-18T14:32:09;0.00;99.90
18160;DHT22;9205;52.032;4.314;2022-12-18T14:34:40;0.00;99.90
18160;DHT22;9205;52.032;4.314;2022-12-18T14:37:10;0.10;99.90
18160;DHT22;9205;52.032;4.314;2022-12-18T14:39:39;-0.10;99.90
18160;DHT22;9205;52.032;4.314;2022-12-18T14:42:19;-0.10;99.90
18160;DHT22;9205;52.032;4.314;2022-12-18T14:44:49;-0.10;99.90
18160;DHT22;9205;52.032;4.314;2022-12-18T14:47:20;-0.10;99.90
18160;DHT22;9205;52.032;4.314;2022-12-18T14:50:02;0.00;99.90
18160;DHT22;9205;52.032;4.314;2022-12-18T14:52:33;-0.10;99.90
18160;DHT22;9205;52.032;4.314;2022-12-18T14:55:05;-0.20;99.90
18160;DHT22;9205;52.032;4.314;2022-12-18T14:57:44;-0.10;99.90
18160;DHT22;9205;52.032;4.314;2022-12-18T15:00:22;0.00;99.90
18160;DHT22;9205;52.032;4.314;2022-12-18T15:03:20;0.00;99.90
18160;DHT22;9205;52.032;4.314;2022-12-18T15:06:17;0.10;99.90
18160;DHT22;9205;52.032;4.314;2022-12-18T15:08:55;0.10;99.90
18160;DHT22;9205;52.032;4.314;2022-12-18T15:11:56;0.00;99.90
18160;DHT22;9205;52.032;4.314;2022-12-18T15:18:16;0.00;99.90
18160;DHT22;9205;52.032;4.314;2022-12-18T15:21:10;0.10;99.90
18160;DHT22;9205;52.032;4.314;2022-12-18T15:24:02;0.10;99.90
18160;DHT22;9205;52.032;4.314;2022-12-18T15:26:37;0.10;99.90
18160;DHT22;9205;52.032;4.314;2022-12-18T15:29:05;0.10;99.90
18160;DHT22;9205;52.032;4.314;2022-12-18T15:31:35;0.20;99.90
18160;DHT22;9205;52.032;4.314;2022-12-18T15:34:26;0.10;99.90
18160;DHT22;9205;52.032;4.314;2022-12-18T15:36:54;0.10;99.90
18160;DHT22;9205;52.032;4.314;2022-12-18T15:39:22;0.10;99.90
18160;DHT22;9205;52.032;4.314;2022-12-18T15:41:56;0.20;99.90
18160;DHT22;9205;52.032;4.314;2022-12-18T15:44:43;0.10;99.90
18160;DHT22;9205;52.032;4.314;2022-12-18T15:47:16;0.20;99.90
18160;DHT22;9205;52.032;4.314;2022-12-18T15:49:52;0.10;99.90
18160;DHT22;9205;52.032;4.314;2022-12-18T15:52:20;0.20;99.90
18160;DHT22;9205;52.032;4.314;2022-12-18T15:54:55;0.10;99.90
18160;DHT22;9205;52.032;4.314;2022-12-18T15:57:49;0.10;99.90
18160;DHT22;9205;52.032;4.314;2022-12-18T16:00:17;0.20;99.90
18160;DHT22;9205;52.032;4.314;2022-12-18T16:02:50;0.20;99.90
18160;DHT22;9205;52.032;4.314;2022-12-18T16:05:24;0.20;99.90
18160;DHT22;9205;52.032;4.314;2022-12-18T16:07:58;0.20;99.90
18160;DHT22;9205;52.032;4.314;2022-12-18T16:10:30;0.20;99.90
18160;DHT22;9205;52.032;4.314;2022-12-18T16:13:00;0.20;99.90
18160;DHT22;9205;52.032;4.314;2022-12-18T16:15:52;0.20;99.90
18160;DHT22;9205;52.032;4.314;2022-12-18T16:18:31;0.20;99.90
18160;DHT22;9205;52.032;4.314;2022-12-18T16:21:04;0.20;99.90
18160;DHT22;9205;52.032;4.314;2022-12-18T16:23:37;0.20;99.90
18160;DHT22;9205;52.032;4.314;2022-12-18T16:26:06;0.20;99.90
18160;DHT22;9205;52.032;4.314;2022-12-18T16:28:43;0.30;99.90
18160;DHT22;9205;52.032;4.314;2022-12-18T16:31:10;0.30;99.90
18160;DHT22;9205;52.032;4.314;2022-12-18T16:33:42;0.30;99.90
18160;DHT22;9205;52.032;4.314;2022-12-18T16:36:11;0.30;99.90
18160;DHT22;9205;52.032;4.314;2022-12-18T16:38:39;0.30;99.90
18160;DHT22;9205;52.032;4.314;2022-12-18T16:41:17;0.30;99.90
18160;DHT22;9205;52.032;4.314;2022-12-18T16:44:02;0.30;99.90
18160;DHT22;9205;52.032;4.314;2022-12-18T16:46:30;0.30;99.90
18160;DHT22;9205;52.032;4.314;2022-12-18T16:49:03;0.40;99.90
18160;DHT22;9205;52.032;4.314;2022-12-18T16:51:45;0.30;99.90
18160;DHT22;9205;52.032;4.314;2022-12-18T16:54:45;0.30;99.90
18160;DHT22;9205;52.032;4.314;2022-12-18T16:57:37;0.30;99.90
18160;DHT22;9205;52.032;4.314;2022-12-18T17:00:19;0.40;99.90